createdAt,value
2017-11-04T00:01:36.374Z,7.60
2017-11-04T00:04:06.709Z,7.60
2017-11-04T00:06:36.341Z,7.60
2017-11-04T00:09:05.971Z,7.60
2017-11-04T00:11:35.929Z,7.60
2017-11-04T00:14:05.099Z,7.60
2017-11-04T00:16:35.669Z,7.60
2017-11-04T00:19:05.926Z,7.60
2017-11-04T00:21:35.498Z,7.60
2017-11-04T00:24:04.455Z,7.60
2017-11-04T00:26:33.676Z,7.60
2017-11-04T00:29:03.165Z,7.60
2017-11-04T00:31:32.788Z,7.60
2017-11-04T00:34:02.296Z,7.60
2017-11-04T00:36:31.380Z,7.60
2017-11-04T00:38:59.937Z,7.70
2017-11-04T00:41:29.162Z,7.70
2017-11-04T00:43:59.068Z,7.70
2017-11-04T00:46:29.024Z,7.70
2017-11-04T00:48:59.221Z,7.70
2017-11-04T00:51:29.452Z,7.60
2017-11-04T00:53:58.844Z,7.60
2017-11-04T00:56:28.050Z,7.50
2017-11-04T00:58:58.866Z,7.60
2017-11-04T01:01:28.254Z,7.60
2017-11-04T01:03:57.837Z,7.60
2017-11-04T01:06:27.997Z,7.50
2017-11-04T01:08:58.098Z,7.60
2017-11-04T01:11:27.331Z,7.50
2017-11-04T01:13:56.950Z,7.50
2017-11-04T01:16:26.609Z,7.50
2017-11-04T01:18:55.930Z,7.50
2017-11-04T01:21:24.668Z,7.40
2017-11-04T01:23:53.314Z,7.40
2017-11-04T01:26:22.727Z,7.40
2017-11-04T01:28:51.618Z,7.40
2017-11-04T01:31:20.688Z,7.40
2017-11-04T01:33:49.606Z,7.40
2017-11-04T01:36:19.045Z,7.40
2017-11-04T01:38:49.154Z,7.40
2017-11-04T01:41:18.837Z,7.40
2017-11-04T01:43:47.687Z,7.40
2017-11-04T01:46:16.776Z,7.40
2017-11-04T01:48:46.991Z,7.40
2017-11-04T01:51:16.033Z,7.40
2017-11-04T01:53:44.666Z,7.40
2017-11-04T01:56:14.474Z,7.30
2017-11-04T01:58:42.754Z,7.30
2017-11-04T02:01:12.130Z,7.30
2017-11-04T02:03:41.278Z,7.30
2017-11-04T02:06:11.249Z,7.30
2017-11-04T02:08:39.817Z,7.30
2017-11-04T02:11:09.354Z,7.30
2017-11-04T02:13:38.139Z,7.30
2017-11-04T02:16:06.809Z,7.30
2017-11-04T02:18:36.618Z,7.30
2017-11-04T02:21:05.747Z,7.30
2017-11-04T02:23:34.632Z,7.30
2017-11-04T02:26:03.863Z,7.20
2017-11-04T02:28:33.056Z,7.20
2017-11-04T02:31:02.092Z,7.20
2017-11-04T02:33:31.565Z,7.20
2017-11-04T02:36:00.700Z,7.20
2017-11-04T02:38:29.399Z,7.20
2017-11-04T02:40:58.166Z,7.20
2017-11-04T02:43:27.860Z,7.20
2017-11-04T02:45:56.891Z,7.20
2017-11-04T02:48:26.280Z,7.20
2017-11-04T02:50:55.758Z,7.20
2017-11-04T02:53:24.976Z,7.10
2017-11-04T02:55:53.420Z,7.20
2017-11-04T02:58:22.184Z,7.20
2017-11-04T03:00:50.820Z,7.20
2017-11-04T03:03:19.919Z,7.20
2017-11-04T03:05:49.896Z,7.20
2017-11-04T03:08:19.256Z,7.20
2017-11-04T03:10:48.593Z,7.20
2017-11-04T03:13:18.384Z,7.30
2017-11-04T03:15:46.984Z,7.30
2017-11-04T03:18:16.247Z,7.30
2017-11-04T03:20:45.545Z,7.30
2017-11-04T03:23:15.206Z,7.30
2017-11-04T03:25:44.865Z,7.20
2017-11-04T03:28:14.961Z,7.20
2017-11-04T03:30:43.589Z,7.20
2017-11-04T03:33:13.327Z,7.20
2017-11-04T03:35:42.198Z,7.20
2017-11-04T03:38:12.110Z,7.20
2017-11-04T03:40:41.156Z,7.20
2017-11-04T03:43:10.486Z,7.20
2017-11-04T03:45:39.338Z,7.20
2017-11-04T03:48:08.434Z,7.20
2017-11-04T03:50:37.484Z,7.30
2017-11-04T03:53:06.779Z,7.30
2017-11-04T03:55:35.270Z,7.30
2017-11-04T03:58:04.448Z,7.30
2017-11-04T04:00:34.559Z,7.30
2017-11-04T04:03:03.480Z,7.30
2017-11-04T04:05:34.677Z,7.30
2017-11-04T04:08:03.708Z,7.20
2017-11-04T04:10:33.296Z,7.30
2017-11-04T04:13:04.436Z,7.30
2017-11-04T04:15:32.969Z,7.30
2017-11-04T04:18:01.411Z,7.30
2017-11-04T04:20:30.732Z,7.30
2017-11-04T04:22:59.948Z,7.40
2017-11-04T04:25:29.272Z,7.40
2017-11-04T04:27:58.003Z,7.40
2017-11-04T04:30:27.131Z,7.40
2017-11-04T04:32:56.519Z,7.50
2017-11-04T04:35:25.317Z,7.50
2017-11-04T04:37:54.071Z,7.50
2017-11-04T04:40:23.036Z,7.50
2017-11-04T04:42:52.543Z,7.50
2017-11-04T04:45:22.459Z,7.50
2017-11-04T04:47:50.913Z,7.60
2017-11-04T04:50:21.197Z,7.60
2017-11-04T04:52:50.468Z,7.70
2017-11-04T04:55:19.604Z,7.70
2017-11-04T04:57:48.697Z,7.70
2017-11-04T05:00:17.618Z,7.70
2017-11-04T05:02:46.880Z,7.70
2017-11-04T05:05:17.220Z,7.80
2017-11-04T05:07:46.480Z,7.80
2017-11-04T05:10:16.224Z,7.80
2017-11-04T05:12:44.757Z,7.90
2017-11-04T05:15:14.347Z,7.90
2017-11-04T05:17:43.445Z,7.90
2017-11-04T05:20:12.802Z,7.90
2017-11-04T05:22:41.941Z,7.90
2017-11-04T05:25:12.296Z,7.90
2017-11-04T05:27:41.424Z,8.00
2017-11-04T05:30:10.690Z,8.00
2017-11-04T05:32:40.283Z,8.00
2017-11-04T05:35:09.574Z,8.00
2017-11-04T05:37:38.394Z,8.00
2017-11-04T05:40:09.079Z,8.10
2017-11-04T05:42:38.333Z,8.10
2017-11-04T05:45:07.232Z,8.10
2017-11-04T05:47:36.311Z,8.10
2017-11-04T05:50:06.223Z,8.00
2017-11-04T05:52:38.258Z,8.00
2017-11-04T05:55:07.615Z,8.00
2017-11-04T05:57:36.955Z,7.90
2017-11-04T06:00:05.912Z,7.90
2017-11-04T06:02:34.897Z,7.90
2017-11-04T06:05:05.112Z,7.80
2017-11-04T06:07:36.226Z,7.90
2017-11-04T06:10:05.691Z,7.90
2017-11-04T06:12:35.014Z,7.90
2017-11-04T06:15:04.638Z,7.90
2017-11-04T06:17:33.886Z,7.90
2017-11-04T06:20:03.492Z,7.90
2017-11-04T06:22:32.292Z,7.90
2017-11-04T06:25:01.925Z,7.90
2017-11-04T06:27:30.361Z,7.90
2017-11-04T06:29:59.424Z,7.90
2017-11-04T06:32:28.694Z,7.90
2017-11-04T06:34:58.231Z,7.90
2017-11-04T06:37:27.986Z,7.90
2017-11-04T06:39:58.431Z,7.90
2017-11-04T06:42:27.933Z,8.00
2017-11-04T06:44:57.085Z,8.00
2017-11-04T06:47:25.839Z,8.10
2017-11-04T06:49:55.220Z,8.10
2017-11-04T06:52:24.123Z,8.10
2017-11-04T06:54:53.153Z,8.10
2017-11-04T06:57:21.322Z,8.10
2017-11-04T06:59:50.840Z,8.10
2017-11-04T07:02:20.698Z,8.20
2017-11-04T07:04:51.186Z,8.20
2017-11-04T07:07:19.975Z,8.20
2017-11-04T07:09:49.521Z,8.20
2017-11-04T07:12:19.381Z,8.20
2017-11-04T07:14:49.184Z,8.30
2017-11-04T07:17:18.598Z,8.30
2017-11-04T07:19:47.473Z,8.40
2017-11-04T07:22:17.896Z,8.40
2017-11-04T07:24:47.339Z,8.50
2017-11-04T07:27:17.038Z,8.50
2017-11-04T07:29:46.593Z,8.50
2017-11-04T07:32:15.155Z,8.50
2017-11-04T07:34:43.785Z,8.50
2017-11-04T07:37:13.433Z,8.40
2017-11-04T07:39:43.043Z,8.50
2017-11-04T07:42:12.139Z,8.50
2017-11-04T07:44:41.064Z,8.50
2017-11-04T07:47:09.188Z,8.50
2017-11-04T07:49:38.430Z,8.50
2017-11-04T07:52:09.863Z,8.60
2017-11-04T07:54:38.712Z,8.60
2017-11-04T07:57:07.050Z,8.60
2017-11-04T07:59:35.923Z,8.70
2017-11-04T08:02:05.029Z,8.70
2017-11-04T08:04:33.863Z,8.70
2017-11-04T08:07:02.457Z,8.80
2017-11-04T08:09:31.502Z,8.90
2017-11-04T08:12:01.151Z,9.00
2017-11-04T08:14:30.295Z,9.00
2017-11-04T08:16:59.725Z,9.10
2017-11-04T08:19:28.848Z,9.10
2017-11-04T08:21:57.893Z,9.20
2017-11-04T08:24:26.908Z,9.20
2017-11-04T08:26:56.149Z,9.30
2017-11-04T08:29:24.620Z,9.30
2017-11-04T08:31:53.177Z,9.30
2017-11-04T08:34:22.821Z,9.40
2017-11-04T08:36:51.811Z,9.40
2017-11-04T08:39:20.990Z,9.40
2017-11-04T08:41:50.646Z,9.50
2017-11-04T08:44:19.309Z,9.50
2017-11-04T08:46:49.140Z,9.50
2017-11-04T08:49:18.097Z,9.50
2017-11-04T08:51:47.328Z,9.60
2017-11-04T08:54:16.331Z,9.60
2017-11-04T08:56:45.998Z,9.60
2017-11-04T08:59:14.425Z,9.70
2017-11-04T09:01:44.986Z,9.70
2017-11-04T09:04:15.390Z,9.70
2017-11-04T09:06:43.984Z,9.70
2017-11-04T09:09:12.957Z,9.70
2017-11-04T09:11:41.815Z,9.70
2017-11-04T09:14:10.868Z,9.70
2017-11-04T09:16:39.179Z,9.80
2017-11-04T09:19:08.111Z,9.80
2017-11-04T09:21:37.782Z,9.90
2017-11-04T09:24:06.147Z,9.90
2017-11-04T09:26:35.945Z,9.90
2017-11-04T09:29:04.763Z,9.90
2017-11-04T09:31:33.946Z,10.00
2017-11-04T09:34:03.736Z,10.00
2017-11-04T09:36:32.642Z,10.00
2017-11-04T09:39:01.890Z,10.10
2017-11-04T09:41:30.409Z,10.10
2017-11-04T09:44:00.344Z,10.20
2017-11-04T09:46:29.904Z,10.20
2017-11-04T09:48:58.410Z,10.20
2017-11-04T09:51:27.967Z,10.30
2017-11-04T09:53:57.401Z,10.30
2017-11-04T09:56:26.873Z,10.40
2017-11-04T09:58:56.377Z,10.40
2017-11-04T10:01:25.464Z,10.40
2017-11-04T10:03:55.333Z,10.40
2017-11-04T10:06:24.806Z,10.40
2017-11-04T10:08:53.429Z,10.40
2017-11-04T10:11:22.298Z,10.50
2017-11-04T10:13:52.261Z,10.50
2017-11-04T10:16:23.028Z,10.60
2017-11-04T10:18:53.634Z,10.70
2017-11-04T10:21:23.307Z,10.70
2017-11-04T10:23:53.439Z,10.80
2017-11-04T10:26:22.538Z,10.80
2017-11-04T10:28:51.365Z,10.80
2017-11-04T10:31:20.404Z,10.80
2017-11-04T10:33:49.097Z,10.80
2017-11-04T10:36:17.430Z,10.80
2017-11-04T10:38:47.352Z,10.80
2017-11-04T10:41:16.150Z,10.90
2017-11-04T10:43:44.579Z,10.90
2017-11-04T10:46:13.453Z,11.00
2017-11-04T10:48:42.554Z,11.10
2017-11-04T10:51:11.997Z,11.10
2017-11-04T10:53:40.992Z,11.20
2017-11-04T10:56:09.994Z,11.20
2017-11-04T10:58:38.902Z,11.30
2017-11-04T11:01:08.935Z,11.40
2017-11-04T11:03:37.519Z,11.50
2017-11-04T11:06:06.394Z,11.50
2017-11-04T11:08:35.934Z,11.50
2017-11-04T11:11:05.451Z,11.50
2017-11-04T11:13:34.468Z,11.60
2017-11-04T11:16:03.944Z,11.60
2017-11-04T11:18:32.990Z,11.70
2017-11-04T11:21:02.892Z,11.80
2017-11-04T11:23:33.669Z,12.00
2017-11-04T11:26:03.514Z,12.00
2017-11-04T11:28:31.900Z,12.00
2017-11-04T11:31:01.877Z,12.00
2017-11-04T11:33:31.643Z,12.00
2017-11-04T11:36:00.859Z,12.10
2017-11-04T11:38:30.097Z,12.10
2017-11-04T11:40:59.131Z,12.20
2017-11-04T11:43:28.783Z,12.20
2017-11-04T11:45:59.198Z,12.30
2017-11-04T11:48:28.395Z,12.30
2017-11-04T11:50:58.112Z,12.40
2017-11-04T11:53:28.009Z,12.40
2017-11-04T11:55:57.349Z,12.40
2017-11-04T11:58:26.602Z,12.50
2017-11-04T12:00:56.299Z,12.50
2017-11-04T12:03:25.206Z,12.50
2017-11-04T12:05:54.361Z,12.50
2017-11-04T12:08:23.391Z,12.50
2017-11-04T12:10:52.075Z,12.50
2017-11-04T12:13:21.058Z,12.50
2017-11-04T12:15:50.511Z,12.50
2017-11-04T12:18:20.354Z,12.50
2017-11-04T12:20:49.836Z,12.50
2017-11-04T12:23:18.697Z,12.50
2017-11-04T12:25:47.759Z,12.60
2017-11-04T12:28:20.036Z,12.60
2017-11-04T12:30:49.558Z,12.60
2017-11-04T12:33:18.427Z,12.60
2017-11-04T12:35:47.399Z,12.60
2017-11-04T12:38:15.659Z,12.60
2017-11-04T12:40:44.509Z,12.60
2017-11-04T12:43:15.774Z,12.70
2017-11-04T12:45:44.493Z,12.70
2017-11-04T12:48:14.970Z,12.80
2017-11-04T12:50:43.576Z,12.90
2017-11-04T12:53:13.093Z,12.90
2017-11-04T12:55:42.702Z,13.00
2017-11-04T12:58:13.366Z,13.10
2017-11-04T13:00:42.403Z,13.10
2017-11-04T13:03:12.264Z,13.20
2017-11-04T13:05:41.967Z,13.30
2017-11-04T13:08:10.817Z,13.30
2017-11-04T13:10:39.748Z,13.30
2017-11-04T13:13:09.729Z,13.30
2017-11-04T13:15:38.562Z,13.30
2017-11-04T13:18:07.644Z,13.30
2017-11-04T13:20:37.242Z,13.30
2017-11-04T13:23:08.686Z,13.30
2017-11-04T13:25:39.336Z,13.30
2017-11-04T13:28:08.875Z,13.30
2017-11-04T13:30:38.270Z,13.30
2017-11-04T13:33:08.322Z,13.40
2017-11-04T13:35:38.401Z,13.40
2017-11-04T13:38:07.421Z,13.40
2017-11-04T13:40:36.355Z,13.40
2017-11-04T13:43:05.580Z,13.40
2017-11-04T13:45:36.416Z,13.40
2017-11-04T13:48:06.471Z,13.50
2017-11-04T13:50:36.134Z,13.50
2017-11-04T13:53:05.299Z,13.40
2017-11-04T13:55:34.488Z,13.40
2017-11-04T13:58:06.458Z,13.40
2017-11-04T14:00:36.516Z,13.50
2017-11-04T14:03:06.129Z,13.50
2017-11-04T14:05:36.155Z,13.50
2017-11-04T14:08:04.474Z,13.50
2017-11-04T14:10:33.881Z,13.50
2017-11-04T14:13:03.320Z,13.50
2017-11-04T14:15:32.814Z,13.50
2017-11-04T14:18:02.870Z,13.50
2017-11-04T14:20:35.384Z,13.50
2017-11-04T14:23:04.816Z,13.50
2017-11-04T14:25:34.814Z,13.50
2017-11-04T14:28:04.039Z,13.40
2017-11-04T14:30:33.615Z,13.40
2017-11-04T14:33:03.367Z,13.40
2017-11-04T14:35:33.774Z,13.40
2017-11-04T14:38:02.878Z,13.40
2017-11-04T14:40:32.328Z,13.50
2017-11-04T14:43:02.012Z,13.50
2017-11-04T14:45:31.483Z,13.50
2017-11-04T14:48:01.045Z,13.70
2017-11-04T14:50:31.199Z,13.70
2017-11-04T14:53:05.615Z,13.70
2017-11-04T14:55:34.440Z,13.70
2017-11-04T14:58:04.144Z,13.70
2017-11-04T15:00:34.595Z,13.60
2017-11-04T15:03:03.153Z,13.60
2017-11-04T15:05:32.606Z,13.50
2017-11-04T15:08:02.686Z,13.50
2017-11-04T15:10:33.590Z,13.50
2017-11-04T15:13:03.493Z,13.40
2017-11-04T15:15:33.097Z,13.40
2017-11-04T15:18:02.040Z,13.30
2017-11-04T15:20:31.551Z,13.30
2017-11-04T15:23:00.586Z,13.20
2017-11-04T15:25:30.469Z,13.20
2017-11-04T15:28:00.562Z,13.20
2017-11-04T15:30:30.268Z,13.20
2017-11-04T15:32:59.856Z,13.10
2017-11-04T15:35:28.813Z,13.10
2017-11-04T15:37:59.129Z,13.10
2017-11-04T15:40:28.656Z,13.00
2017-11-04T15:42:57.515Z,13.00
2017-11-04T15:45:26.571Z,13.00
2017-11-04T15:47:55.642Z,13.00
2017-11-04T15:50:26.465Z,12.90
2017-11-04T15:52:55.065Z,12.90
2017-11-04T15:55:24.026Z,12.80
2017-11-04T15:57:53.146Z,12.80
2017-11-04T16:00:22.017Z,12.80
2017-11-04T16:02:51.033Z,12.80
2017-11-04T16:05:20.875Z,12.70
2017-11-04T16:07:50.392Z,12.60
2017-11-04T16:10:19.759Z,12.60
2017-11-04T16:12:48.432Z,12.50
2017-11-04T16:15:18.524Z,12.50
2017-11-04T16:17:47.683Z,12.40
2017-11-04T16:20:17.136Z,12.30
2017-11-04T16:22:47.308Z,12.30
2017-11-04T16:25:16.790Z,12.20
2017-11-04T16:27:45.966Z,12.10
2017-11-04T16:30:16.169Z,12.10
2017-11-04T16:32:44.915Z,12.00
2017-11-04T16:35:13.627Z,12.00
2017-11-04T16:37:42.624Z,12.00
2017-11-04T16:40:12.342Z,12.00
2017-11-04T16:42:42.273Z,11.90
2017-11-04T16:45:11.819Z,11.80
2017-11-04T16:47:41.358Z,11.80
2017-11-04T16:50:10.438Z,11.80
2017-11-04T16:52:40.220Z,11.80
2017-11-04T16:55:09.487Z,11.70
2017-11-04T16:57:38.066Z,11.70
2017-11-04T17:00:06.967Z,11.60
2017-11-04T17:02:35.970Z,11.60
2017-11-04T17:05:04.384Z,11.50
2017-11-04T17:07:34.360Z,11.50
2017-11-04T17:10:03.575Z,11.40
2017-11-04T17:12:32.439Z,11.40
2017-11-04T17:15:02.276Z,11.40
2017-11-04T17:17:32.791Z,11.30
2017-11-04T17:20:02.356Z,11.20
2017-11-04T17:22:30.996Z,11.20
2017-11-04T17:25:00.316Z,11.20
2017-11-04T17:27:28.878Z,11.20
2017-11-04T17:29:58.070Z,11.20
2017-11-04T17:32:27.697Z,11.10
2017-11-04T17:34:57.481Z,11.10
2017-11-04T17:37:27.214Z,11.10
2017-11-04T17:39:57.757Z,11.10
2017-11-04T17:42:28.586Z,11.00
2017-11-04T17:44:57.481Z,11.00
2017-11-04T17:47:26.641Z,10.90
2017-11-04T17:49:55.347Z,10.90
2017-11-04T17:52:23.953Z,10.90
2017-11-04T17:54:54.613Z,10.80
2017-11-04T17:57:23.912Z,10.80
2017-11-04T17:59:53.525Z,10.80
2017-11-04T18:02:23.203Z,10.70
2017-11-04T18:04:52.245Z,10.70
2017-11-04T18:07:22.159Z,10.60
2017-11-04T18:09:51.344Z,10.60
2017-11-04T18:12:21.142Z,10.60
2017-11-04T18:14:50.866Z,10.50
2017-11-04T18:17:20.762Z,10.50
2017-11-04T18:19:51.294Z,10.40
2017-11-04T18:22:21.880Z,10.50
2017-11-04T18:24:51.613Z,10.40
2017-11-04T18:27:21.038Z,10.40
2017-11-04T18:29:50.680Z,10.30
2017-11-04T18:32:20.495Z,10.20
2017-11-04T18:34:50.136Z,10.20
2017-11-04T18:37:19.396Z,10.20
2017-11-04T18:39:49.386Z,10.20
2017-11-04T18:42:18.371Z,10.20
2017-11-04T18:44:48.448Z,10.20
2017-11-04T18:47:18.067Z,10.10
2017-11-04T18:49:48.049Z,10.10
2017-11-04T18:52:18.196Z,10.10
2017-11-04T18:54:47.724Z,10.10
2017-11-04T18:57:17.781Z,10.00
2017-11-04T18:59:47.676Z,10.00
2017-11-04T19:02:17.504Z,10.00
2017-11-04T19:04:47.454Z,10.00
2017-11-04T19:07:16.901Z,10.00
2017-11-04T19:09:46.377Z,10.00
2017-11-04T19:12:16.305Z,10.00
2017-11-04T19:14:45.508Z,10.00
2017-11-04T19:17:15.118Z,9.90
2017-11-04T19:19:45.212Z,9.90
2017-11-04T19:22:14.071Z,9.90
2017-11-04T19:24:43.815Z,10.00
2017-11-04T19:27:14.206Z,9.90
2017-11-04T19:29:43.623Z,9.90
2017-11-04T19:32:13.929Z,9.90
2017-11-04T19:34:43.384Z,9.90
2017-11-04T19:37:13.300Z,9.90
2017-11-04T19:39:43.232Z,9.80
2017-11-04T19:42:13.627Z,9.80
2017-11-04T19:44:43.078Z,9.80
2017-11-04T19:47:13.228Z,9.90
2017-11-04T19:49:42.853Z,9.80
2017-11-04T19:52:11.738Z,9.80
2017-11-04T19:54:41.401Z,9.80
2017-11-04T19:57:10.118Z,9.80
2017-11-04T19:59:39.184Z,9.80
2017-11-04T20:02:08.651Z,9.80
2017-11-04T20:04:38.702Z,9.80
2017-11-04T20:07:09.292Z,9.70
2017-11-04T20:09:38.535Z,9.70
2017-11-04T20:12:09.495Z,9.80
2017-11-04T20:14:38.840Z,9.80
2017-11-04T20:17:09.200Z,9.70
2017-11-04T20:19:39.772Z,9.70
2017-11-04T20:22:09.503Z,9.70
2017-11-04T20:24:39.060Z,9.80
2017-11-04T20:27:08.774Z,9.80
2017-11-04T20:29:37.805Z,9.80
2017-11-04T20:32:07.445Z,9.80
2017-11-04T20:34:37.143Z,9.90
2017-11-04T20:37:07.311Z,9.90
2017-11-04T20:39:37.763Z,9.90
2017-11-04T20:42:08.315Z,9.80
2017-11-04T20:44:39.429Z,9.80
2017-11-04T20:47:08.668Z,9.80
2017-11-04T20:49:37.429Z,9.80
2017-11-04T20:52:07.453Z,9.80
2017-11-04T20:54:37.258Z,9.80
2017-11-04T20:57:06.052Z,9.80
2017-11-04T20:59:35.300Z,9.80
2017-11-04T21:02:04.514Z,9.80
2017-11-04T21:04:34.410Z,9.80
2017-11-04T21:07:03.603Z,9.80
2017-11-04T21:09:32.684Z,9.80
2017-11-04T21:12:02.130Z,9.80
2017-11-04T21:14:31.205Z,9.80
2017-11-04T21:16:59.720Z,9.80
2017-11-04T21:19:30.516Z,9.80
2017-11-04T21:21:59.500Z,9.80
2017-11-04T21:24:30.224Z,9.80
2017-11-04T21:26:59.151Z,9.80
2017-11-04T21:29:29.453Z,9.80
2017-11-04T21:31:59.307Z,9.70
2017-11-04T21:34:28.366Z,9.70
2017-11-04T21:36:57.576Z,9.70
2017-11-04T21:39:27.095Z,9.70
2017-11-04T21:41:56.876Z,9.70
2017-11-04T21:44:25.774Z,9.70
2017-11-04T21:46:55.496Z,9.70
2017-11-04T21:49:24.566Z,9.70
2017-11-04T21:51:54.802Z,9.60
2017-11-04T21:54:23.583Z,9.60
2017-11-04T21:56:52.752Z,9.70
2017-11-04T21:59:22.065Z,9.70
2017-11-04T22:01:50.984Z,9.70
2017-11-04T22:04:20.818Z,9.70
2017-11-04T22:06:51.282Z,9.70
2017-11-04T22:09:20.308Z,9.80
2017-11-04T22:11:50.317Z,9.80
2017-11-04T22:14:20.866Z,9.70
2017-11-04T22:16:50.601Z,9.70
2017-11-04T22:19:20.079Z,9.70
2017-11-04T22:21:49.385Z,9.70
2017-11-04T22:24:19.086Z,9.70
2017-11-04T22:26:48.464Z,9.60
2017-11-04T22:29:18.794Z,9.60
2017-11-04T22:31:48.673Z,9.60
2017-11-04T22:34:17.717Z,9.60
2017-11-04T22:36:47.195Z,9.60
2017-11-04T22:39:16.609Z,9.60
2017-11-04T22:41:47.153Z,9.60
2017-11-04T22:44:16.691Z,9.60
2017-11-04T22:46:46.682Z,9.60
2017-11-04T22:49:17.015Z,9.50
2017-11-04T22:51:47.237Z,9.50
2017-11-04T22:54:17.644Z,9.50
2017-11-04T22:56:46.946Z,9.50
2017-11-04T22:59:16.409Z,9.40
2017-11-04T23:01:46.585Z,9.40
2017-11-04T23:04:16.611Z,9.40
2017-11-04T23:06:46.134Z,9.40
2017-11-04T23:09:15.734Z,9.30
2017-11-04T23:11:46.220Z,9.30
2017-11-04T23:14:16.061Z,9.30
2017-11-04T23:16:46.287Z,9.30
2017-11-04T23:19:15.800Z,9.30
2017-11-04T23:21:45.892Z,9.30
2017-11-04T23:24:15.568Z,9.20
2017-11-04T23:26:45.686Z,9.20
2017-11-04T23:29:15.895Z,9.10
2017-11-04T23:31:45.550Z,9.10
2017-11-04T23:34:14.489Z,9.10
2017-11-04T23:36:44.412Z,9.10
2017-11-04T23:39:14.158Z,9.00
2017-11-04T23:41:44.873Z,9.00
2017-11-04T23:44:14.598Z,8.90
2017-11-04T23:46:44.014Z,8.80
2017-11-04T23:49:13.621Z,8.80
2017-11-04T23:51:43.377Z,8.80
2017-11-04T23:54:14.052Z,8.80
2017-11-04T23:56:44.266Z,8.70
2017-11-04T23:59:14.755Z,8.70
